createdAt,value
2018-10-06T00:00:35.041Z,30.03
2018-10-06T00:03:03.442Z,20.23
2018-10-06T00:05:31.863Z,24.77
2018-10-06T00:08:00.257Z,18.90
2018-10-06T00:10:28.698Z,16.77
2018-10-06T00:12:57.772Z,17.17
2018-10-06T00:15:26.187Z,21.60
2018-10-06T00:17:54.594Z,23.93
2018-10-06T00:20:23.322Z,26.87
2018-10-06T00:22:52.058Z,23.47
2018-10-06T00:25:20.478Z,20.70
2018-10-06T00:27:48.902Z,20.80
2018-10-06T00:30:17.280Z,20.30
2018-10-06T00:32:45.699Z,28.03
2018-10-06T00:35:14.102Z,21.53
2018-10-06T00:37:42.505Z,25.00
2018-10-06T00:40:10.933Z,28.83
2018-10-06T00:42:39.325Z,26.77
2018-10-06T00:45:07.789Z,32.10
2018-10-06T00:47:36.256Z,32.27
2018-10-06T00:50:04.768Z,21.33
2018-10-06T00:52:33.208Z,24.60
2018-10-06T00:55:01.596Z,25.10
2018-10-06T00:57:30.016Z,24.90
2018-10-06T00:59:58.425Z,23.27
2018-10-06T01:02:26.805Z,25.20
2018-10-06T01:04:55.192Z,29.30
2018-10-06T01:07:23.926Z,21.57
2018-10-06T01:09:52.310Z,26.77
2018-10-06T01:12:20.688Z,27.40
2018-10-06T01:14:49.121Z,23.50
2018-10-06T01:17:17.513Z,22.30
2018-10-06T01:19:45.925Z,29.03
2018-10-06T01:22:14.321Z,26.20
2018-10-06T01:24:42.713Z,22.83
2018-10-06T01:27:11.117Z,21.97
2018-10-06T01:29:39.515Z,28.23
2018-10-06T01:32:08.745Z,29.33
2018-10-06T01:34:37.653Z,23.57
2018-10-06T01:37:06.243Z,23.57
2018-10-06T01:39:34.635Z,22.17
2018-10-06T01:42:03.046Z,23.57
2018-10-06T01:44:31.428Z,27.77
2018-10-06T01:46:59.825Z,33.73
2018-10-06T01:49:28.228Z,28.30
2018-10-06T01:51:56.633Z,27.43
2018-10-06T01:54:25.076Z,22.90
2018-10-06T01:56:53.453Z,28.53
2018-10-06T01:59:21.836Z,26.40
2018-10-06T02:01:50.265Z,30.53
2018-10-06T02:04:22.876Z,31.87
2018-10-06T02:06:51.432Z,32.90
2018-10-06T02:09:19.861Z,35.70
2018-10-06T02:11:48.253Z,28.93
2018-10-06T02:14:16.624Z,27.80
2018-10-06T02:16:45.057Z,29.27
2018-10-06T02:19:14.117Z,32.93
2018-10-06T02:21:42.501Z,39.53
2018-10-06T02:24:10.900Z,28.77
2018-10-06T02:26:39.303Z,32.93
2018-10-06T02:29:07.689Z,31.57
2018-10-06T02:31:36.085Z,28.40
2018-10-06T02:34:04.518Z,39.80
2018-10-06T02:36:32.909Z,43.87
2018-10-06T02:39:01.304Z,40.87
2018-10-06T02:41:29.704Z,35.83
2018-10-06T02:43:58.097Z,35.03
2018-10-06T02:46:26.500Z,31.53
2018-10-06T02:48:54.910Z,28.83
2018-10-06T02:51:23.304Z,34.13
2018-10-06T02:53:52.244Z,37.53
2018-10-06T02:56:20.733Z,26.70
2018-10-06T02:58:49.125Z,30.83
2018-10-06T03:01:17.559Z,33.70
2018-10-06T03:03:45.948Z,44.43
2018-10-06T03:06:14.381Z,31.00
2018-10-06T03:08:42.829Z,29.93
2018-10-06T03:11:11.203Z,35.47
2018-10-06T03:13:39.605Z,30.40
2018-10-06T03:16:08.438Z,33.93
2018-10-06T03:18:36.855Z,33.30
2018-10-06T03:21:05.298Z,27.37
2018-10-06T03:23:33.688Z,27.53
2018-10-06T03:26:02.106Z,29.47
2018-10-06T03:28:30.493Z,27.90
2018-10-06T03:30:58.916Z,27.47
2018-10-06T03:33:27.312Z,32.13
2018-10-06T03:35:55.692Z,30.17
2018-10-06T03:38:24.088Z,26.20
2018-10-06T03:40:52.467Z,30.40
2018-10-06T03:43:20.872Z,33.60
2018-10-06T03:45:49.256Z,28.57
2018-10-06T03:48:17.650Z,31.27
2018-10-06T03:50:46.037Z,30.67
2018-10-06T03:53:14.440Z,31.77
2018-10-06T03:55:42.908Z,25.20
2018-10-06T03:58:11.304Z,32.13
2018-10-06T04:00:39.697Z,29.73
2018-10-06T04:03:08.144Z,27.43
2018-10-06T04:05:36.524Z,29.40
2018-10-06T04:08:05.124Z,34.43
2018-10-06T04:10:34.443Z,29.73
2018-10-06T04:13:02.834Z,25.07
2018-10-06T04:15:31.236Z,28.07
2018-10-06T04:17:59.889Z,26.17
2018-10-06T04:20:28.530Z,23.50
2018-10-06T04:22:58.841Z,26.10
2018-10-06T04:25:27.213Z,26.60
2018-10-06T04:27:55.604Z,28.30
2018-10-06T04:30:23.984Z,34.50
2018-10-06T04:32:52.374Z,27.13
2018-10-06T04:35:20.809Z,26.03
2018-10-06T04:37:49.213Z,26.33
2018-10-06T04:40:18.229Z,25.03
2018-10-06T04:42:46.612Z,25.73
2018-10-06T04:45:15.188Z,28.13
2018-10-06T04:47:43.568Z,25.70
2018-10-06T04:50:11.954Z,27.40
2018-10-06T04:52:40.352Z,26.80
2018-10-06T04:55:08.725Z,30.67
2018-10-06T04:57:37.134Z,25.53
2018-10-06T05:00:06.417Z,29.30
2018-10-06T05:02:34.789Z,21.80
2018-10-06T05:05:03.227Z,25.20
2018-10-06T05:07:31.605Z,22.53
2018-10-06T05:09:59.993Z,25.63
2018-10-06T05:12:28.393Z,27.77
2018-10-06T05:14:57.064Z,29.37
2018-10-06T05:17:25.444Z,28.70
2018-10-06T05:19:53.877Z,29.37
2018-10-06T05:22:22.658Z,26.80
2018-10-06T05:24:51.839Z,28.67
2018-10-06T05:27:20.242Z,23.50
2018-10-06T05:29:48.659Z,26.67
2018-10-06T05:32:17.073Z,26.27
2018-10-06T05:34:45.647Z,24.00
2018-10-06T05:37:14.813Z,33.50
2018-10-06T05:39:43.220Z,24.73
2018-10-06T05:42:11.629Z,24.50
2018-10-06T05:44:40.022Z,23.73
2018-10-06T05:47:08.481Z,20.93
2018-10-06T05:49:36.980Z,24.90
2018-10-06T05:52:05.638Z,22.73
2018-10-06T05:54:34.060Z,31.97
2018-10-06T05:57:02.477Z,25.07
2018-10-06T05:59:30.873Z,24.67
2018-10-06T06:01:59.261Z,27.87
2018-10-06T06:04:31.464Z,25.40
2018-10-06T06:06:59.861Z,24.07
2018-10-06T06:09:28.869Z,22.20
2018-10-06T06:11:57.246Z,22.40
2018-10-06T06:14:25.628Z,32.10
2018-10-06T06:16:54.025Z,20.80
2018-10-06T06:19:22.445Z,22.53
2018-10-06T06:21:50.857Z,21.63
2018-10-06T06:24:19.277Z,21.77
2018-10-06T06:26:48.392Z,20.70
2018-10-06T06:29:16.793Z,18.90
2018-10-06T06:31:45.365Z,20.50
2018-10-06T06:34:13.816Z,20.60
2018-10-06T06:36:42.216Z,21.00
2018-10-06T06:39:10.740Z,19.40
2018-10-06T06:41:39.396Z,17.67
2018-10-06T06:44:08.353Z,19.67
2018-10-06T06:46:36.996Z,16.53
2018-10-06T06:49:06.060Z,20.43
2018-10-06T06:51:35.113Z,21.43
2018-10-06T06:54:03.506Z,18.37
2018-10-06T06:56:32.005Z,18.87
2018-10-06T06:59:00.665Z,20.70
2018-10-06T07:01:29.049Z,17.10
2018-10-06T07:03:57.437Z,18.30
2018-10-06T07:06:25.869Z,22.20
2018-10-06T07:08:54.274Z,14.37
2018-10-06T07:11:23.305Z,16.80
2018-10-06T07:13:51.725Z,17.80
2018-10-06T07:16:20.137Z,16.57
2018-10-06T07:18:48.544Z,14.40
2018-10-06T07:21:16.954Z,17.03
2018-10-06T07:23:45.381Z,18.57
2018-10-06T07:26:13.780Z,18.80
2018-10-06T07:28:42.177Z,15.33
2018-10-06T07:31:10.688Z,20.43
2018-10-06T07:33:39.120Z,16.33
2018-10-06T07:36:07.545Z,16.97
2018-10-06T07:38:36.105Z,17.20
2018-10-06T07:41:04.549Z,13.80
2018-10-06T07:43:32.949Z,14.50
2018-10-06T07:46:02.648Z,12.40
2018-10-06T07:48:31.077Z,17.23
2018-10-06T07:50:59.612Z,18.33
2018-10-06T07:53:28.021Z,15.67
2018-10-06T07:55:56.416Z,17.60
2018-10-06T07:58:24.853Z,18.60
2018-10-06T08:00:53.267Z,14.40
2018-10-06T08:03:21.693Z,17.50
2018-10-06T08:05:50.688Z,18.13
2018-10-06T08:08:19.372Z,16.23
2018-10-06T08:10:47.801Z,16.40
2018-10-06T08:13:16.201Z,16.83
2018-10-06T08:15:44.640Z,19.10
2018-10-06T08:18:13.021Z,15.57
2018-10-06T08:20:41.423Z,15.00
2018-10-06T08:23:09.924Z,15.20
2018-10-06T08:25:38.365Z,12.83
2018-10-06T08:28:06.759Z,13.87
2018-10-06T08:30:35.190Z,20.77
2018-10-06T08:33:03.594Z,15.90
2018-10-06T08:35:32.054Z,15.83
2018-10-06T08:38:00.896Z,14.33
2018-10-06T08:40:29.736Z,19.40
2018-10-06T08:42:58.313Z,18.33
2018-10-06T08:45:26.997Z,17.23
2018-10-06T08:47:55.432Z,20.10
2018-10-06T08:50:23.893Z,13.47
2018-10-06T08:52:52.491Z,16.73
2018-10-06T08:55:20.905Z,21.43
2018-10-06T08:57:49.329Z,14.77
2018-10-06T09:00:17.822Z,17.47
2018-10-06T09:02:46.356Z,14.63
2018-10-06T09:05:14.762Z,14.33
2018-10-06T09:07:44.052Z,13.50
2018-10-06T09:10:13.032Z,21.73
2018-10-06T09:12:41.714Z,14.90
2018-10-06T09:15:12.267Z,15.40
2018-10-06T09:17:40.818Z,14.13
2018-10-06T09:20:09.217Z,15.57
2018-10-06T09:22:37.659Z,11.20
2018-10-06T09:25:06.121Z,14.73
2018-10-06T09:27:34.537Z,11.60
2018-10-06T09:30:02.991Z,12.47
2018-10-06T09:32:32.396Z,15.10
2018-10-06T09:35:01.656Z,12.67
2018-10-06T09:37:30.049Z,12.17
2018-10-06T09:39:58.680Z,12.10
2018-10-06T09:42:27.183Z,12.90
2018-10-06T09:44:55.581Z,12.03
2018-10-06T09:47:23.956Z,11.43
2018-10-06T09:49:52.361Z,16.17
2018-10-06T09:52:20.965Z,12.83
2018-10-06T09:54:49.433Z,12.13
2018-10-06T09:57:17.866Z,13.90
2018-10-06T09:59:46.517Z,12.73
2018-10-06T10:02:20.415Z,11.30
2018-10-06T10:04:48.789Z,14.57
2018-10-06T10:07:17.193Z,11.80
2018-10-06T10:09:45.680Z,7.87
2018-10-06T10:12:14.923Z,12.53
2018-10-06T10:14:43.305Z,7.80
2018-10-06T10:17:11.767Z,12.17
2018-10-06T10:19:40.140Z,10.90
2018-10-06T10:22:08.660Z,10.43
2018-10-06T10:24:36.932Z,12.73
2018-10-06T10:27:05.404Z,8.10
2018-10-06T10:29:33.784Z,8.97
2018-10-06T10:32:02.201Z,13.50
2018-10-06T10:34:30.652Z,8.33
2018-10-06T10:36:59.009Z,8.90
2018-10-06T10:39:27.648Z,11.17
2018-10-06T10:41:55.928Z,13.63
2018-10-06T10:44:24.436Z,16.50
2018-10-06T10:46:52.760Z,11.40
2018-10-06T10:49:21.209Z,11.67
2018-10-06T10:51:49.640Z,9.60
2018-10-06T10:54:18.073Z,5.43
2018-10-06T10:56:46.465Z,7.77
2018-10-06T10:59:14.973Z,8.67
2018-10-06T11:01:43.365Z,7.87
2018-10-06T11:04:11.798Z,8.33
2018-10-06T11:06:40.223Z,6.27
2018-10-06T11:09:09.081Z,5.63
2018-10-06T11:11:37.788Z,7.33
2018-10-06T11:14:06.246Z,6.57
2018-10-06T11:16:34.657Z,6.73
2018-10-06T11:19:03.331Z,5.30
2018-10-06T11:21:31.769Z,6.03
2018-10-06T11:24:00.180Z,4.80
2018-10-06T11:26:28.848Z,7.73
2018-10-06T11:28:57.269Z,6.00
2018-10-06T11:31:25.677Z,10.70
2018-10-06T11:33:54.099Z,7.03
2018-10-06T11:36:22.489Z,3.87
2018-10-06T11:38:50.897Z,7.63
2018-10-06T11:41:19.280Z,4.90
2018-10-06T11:43:48.458Z,4.10
2018-10-06T11:46:17.225Z,7.50
2018-10-06T11:48:45.621Z,4.73
2018-10-06T11:51:14.141Z,3.87
2018-10-06T11:53:42.537Z,7.27
2018-10-06T11:56:10.956Z,6.47
2018-10-06T11:58:39.342Z,5.60
2018-10-06T12:01:07.880Z,9.03
2018-10-06T12:03:36.651Z,5.03
2018-10-06T12:06:05.133Z,2.60
2018-10-06T12:08:33.567Z,3.50
2018-10-06T12:11:02.028Z,4.83
2018-10-06T12:13:30.426Z,5.40
2018-10-06T12:15:59.090Z,3.40
2018-10-06T12:18:27.493Z,5.33
2018-10-06T12:20:55.929Z,3.73
2018-10-06T12:23:24.425Z,5.03
2018-10-06T12:25:52.864Z,5.13
2018-10-06T12:28:21.214Z,8.10
2018-10-06T12:30:49.625Z,3.87
2018-10-06T12:33:18.033Z,5.23
2018-10-06T12:35:46.474Z,8.23
2018-10-06T12:38:15.772Z,4.33
2018-10-06T12:40:44.233Z,5.37
2018-10-06T12:43:12.665Z,2.93
2018-10-06T12:45:41.077Z,7.23
2018-10-06T12:48:09.465Z,12.13
2018-10-06T12:50:37.880Z,7.10
2018-10-06T12:53:06.325Z,4.83
2018-10-06T12:55:34.712Z,3.13
2018-10-06T12:58:03.196Z,4.73
2018-10-06T13:00:31.718Z,8.20
2018-10-06T13:03:00.126Z,3.00
2018-10-06T13:05:29.205Z,6.97
2018-10-06T13:07:57.632Z,6.47
2018-10-06T13:10:26.031Z,5.17
2018-10-06T13:12:54.452Z,5.17
2018-10-06T13:15:23.497Z,7.03
2018-10-06T13:17:51.897Z,3.23
2018-10-06T13:20:20.288Z,4.80
2018-10-06T13:22:48.709Z,6.67
2018-10-06T13:25:17.084Z,5.30
2018-10-06T13:27:45.528Z,6.00
2018-10-06T13:30:13.925Z,7.40
2018-10-06T13:32:42.359Z,6.27
2018-10-06T13:35:10.769Z,7.70
2018-10-06T13:37:39.453Z,6.83
2018-10-06T13:40:07.928Z,5.10
2018-10-06T13:42:37.010Z,7.67
2018-10-06T13:45:05.492Z,8.17
2018-10-06T13:47:33.909Z,11.43
2018-10-06T13:50:02.329Z,8.90
2018-10-06T13:52:30.832Z,3.33
2018-10-06T13:54:59.235Z,7.10
2018-10-06T13:57:27.717Z,2.63
2018-10-06T13:59:56.160Z,8.40
2018-10-06T14:02:24.645Z,9.93
2018-10-06T14:04:53.141Z,5.97
2018-10-06T14:07:21.624Z,4.10
2018-10-06T14:09:50.016Z,4.27
2018-10-06T14:12:18.469Z,8.83
2018-10-06T14:14:46.884Z,9.43
2018-10-06T14:17:15.536Z,5.37
2018-10-06T14:19:43.957Z,10.10
2018-10-06T14:22:12.409Z,9.60
2018-10-06T14:24:40.816Z,8.70
2018-10-06T14:27:09.242Z,15.10
2018-10-06T14:29:37.649Z,3.70
2018-10-06T14:32:06.216Z,4.67
2018-10-06T14:34:34.635Z,4.80
2018-10-06T14:37:03.043Z,3.33
2018-10-06T14:39:31.488Z,5.57
2018-10-06T14:42:00.044Z,5.50
2018-10-06T14:44:28.585Z,7.50
2018-10-06T14:46:57.044Z,6.90
2018-10-06T14:49:25.444Z,8.10
2018-10-06T14:51:54.417Z,6.83
2018-10-06T14:54:22.845Z,7.37
2018-10-06T14:56:51.311Z,8.20
2018-10-06T14:59:20.320Z,8.50
2018-10-06T15:01:48.752Z,9.97
2018-10-06T15:04:17.184Z,5.23
2018-10-06T15:06:45.597Z,4.73
2018-10-06T15:09:13.989Z,3.70
2018-10-06T15:11:42.385Z,8.03
2018-10-06T15:14:10.805Z,7.73
2018-10-06T15:16:39.209Z,5.17
2018-10-06T15:19:08.541Z,6.97
2018-10-06T15:21:37.054Z,8.43
2018-10-06T15:24:05.440Z,5.50
2018-10-06T15:26:33.864Z,5.23
2018-10-06T15:29:02.404Z,3.57
2018-10-06T15:31:30.833Z,4.70
2018-10-06T15:33:59.230Z,9.37
2018-10-06T15:36:27.972Z,6.47
2018-10-06T15:38:56.336Z,3.93
2018-10-06T15:41:24.761Z,8.33
2018-10-06T15:43:53.168Z,8.97
2018-10-06T15:46:22.245Z,4.93
2018-10-06T15:48:50.744Z,7.90
2018-10-06T15:51:19.176Z,4.73
2018-10-06T15:53:47.630Z,9.20
2018-10-06T15:56:16.115Z,5.53
2018-10-06T15:58:44.625Z,9.73
2018-10-06T16:01:13.081Z,7.50
2018-10-06T16:03:41.499Z,3.10
2018-10-06T16:06:10.042Z,6.00
2018-10-06T16:08:38.553Z,5.00
2018-10-06T16:11:07.039Z,5.00
2018-10-06T16:13:38.949Z,4.83
2018-10-06T16:16:07.381Z,5.20
2018-10-06T16:18:40.647Z,6.27
2018-10-06T16:21:10.182Z,4.90
2018-10-06T16:23:39.809Z,4.70
2018-10-06T16:26:14.260Z,7.40
2018-10-06T16:28:42.832Z,5.53
2018-10-06T16:31:11.332Z,6.70
2018-10-06T16:33:39.818Z,6.27
2018-10-06T16:36:08.352Z,8.40
2018-10-06T16:38:37.504Z,7.23
2018-10-06T16:41:05.991Z,7.57
2018-10-06T16:43:34.628Z,6.87
2018-10-06T16:46:03.150Z,5.60
2018-10-06T16:48:31.574Z,8.30
2018-10-06T16:51:01.101Z,8.23
2018-10-06T16:53:29.549Z,5.60
2018-10-06T16:55:58.940Z,8.33
2018-10-06T16:58:27.369Z,3.33
2018-10-06T17:01:10.397Z,6.43
2018-10-06T17:03:44.122Z,7.23
2018-10-06T17:06:12.659Z,5.37
2018-10-06T17:08:42.060Z,6.50
2018-10-06T17:11:10.488Z,4.03
2018-10-06T17:13:38.906Z,5.20
2018-10-06T17:16:07.917Z,4.97
2018-10-06T17:18:36.368Z,6.30
2018-10-06T17:21:04.720Z,3.97
2018-10-06T17:23:33.141Z,6.03
2018-10-06T17:26:01.593Z,8.93
2018-10-06T17:28:29.990Z,6.13
2018-10-06T17:30:58.458Z,6.33
2018-10-06T17:33:26.829Z,3.73
2018-10-06T17:35:55.361Z,10.83
2018-10-06T17:38:23.838Z,5.90
2018-10-06T17:40:52.276Z,4.33
2018-10-06T17:43:20.800Z,7.30
2018-10-06T17:45:49.249Z,3.93
2018-10-06T17:48:17.901Z,6.97
2018-10-06T17:50:47.339Z,8.00
2018-10-06T17:53:17.373Z,6.10
2018-10-06T17:55:45.812Z,9.67
2018-10-06T17:58:14.243Z,7.73
2018-10-06T18:00:42.649Z,5.50
2018-10-06T18:03:11.057Z,10.90
2018-10-06T18:05:39.529Z,11.43
2018-10-06T18:08:07.938Z,6.57
2018-10-06T18:10:36.410Z,7.50
2018-10-06T18:13:04.855Z,6.63
2018-10-06T18:15:34.105Z,16.53
2018-10-06T18:18:02.508Z,7.80
2018-10-06T18:20:30.992Z,7.50
2018-10-06T18:22:59.357Z,7.43
2018-10-06T18:25:28.622Z,5.47
2018-10-06T18:27:57.020Z,26.83
2018-10-06T18:30:25.429Z,10.50
2018-10-06T18:32:53.893Z,5.33
2018-10-06T18:35:22.309Z,5.33
2018-10-06T18:37:50.789Z,7.80
2018-10-06T18:40:19.247Z,9.60
2018-10-06T18:42:47.645Z,8.97
2018-10-06T18:45:16.080Z,9.53
2018-10-06T18:47:44.487Z,7.20
2018-10-06T18:50:12.941Z,7.70
2018-10-06T18:52:41.365Z,9.70
2018-10-06T18:55:09.792Z,10.33
2018-10-06T18:57:38.243Z,9.27
2018-10-06T19:00:07.456Z,5.93
2018-10-06T19:02:35.950Z,9.80
2018-10-06T19:05:04.481Z,10.60
2018-10-06T19:07:33.554Z,9.00
2018-10-06T19:10:01.978Z,9.07
2018-10-06T19:12:30.358Z,9.80
2018-10-06T19:14:59.248Z,9.93
2018-10-06T19:17:27.701Z,9.03
2018-10-06T19:19:56.248Z,17.43
2018-10-06T19:22:24.761Z,12.07
2018-10-06T19:24:53.161Z,8.17
2018-10-06T19:27:21.589Z,7.20
2018-10-06T19:29:49.977Z,6.70
2018-10-06T19:32:18.848Z,11.53
2018-10-06T19:34:47.278Z,12.50
2018-10-06T19:37:15.677Z,11.90
2018-10-06T19:39:44.101Z,15.83
2018-10-06T19:42:12.509Z,12.40
2018-10-06T19:44:40.938Z,10.30
2018-10-06T19:47:09.382Z,11.87
2018-10-06T19:49:37.800Z,10.17
2018-10-06T19:52:06.435Z,9.50
2018-10-06T19:54:34.860Z,9.90
2018-10-06T19:57:03.285Z,11.57
2018-10-06T19:59:31.716Z,11.10
2018-10-06T20:02:00.169Z,11.13
2018-10-06T20:04:28.598Z,14.13
2018-10-06T20:06:57.004Z,13.10
2018-10-06T20:09:25.441Z,12.20
2018-10-06T20:11:53.902Z,12.60
2018-10-06T20:14:23.416Z,12.13
2018-10-06T20:16:53.025Z,11.53
2018-10-06T20:19:21.462Z,11.00
2018-10-06T20:21:50.521Z,14.57
2018-10-06T20:24:18.994Z,18.10
2018-10-06T20:26:47.392Z,15.10
2018-10-06T20:29:15.780Z,17.13
2018-10-06T20:31:44.945Z,13.53
2018-10-06T20:34:13.399Z,18.90
2018-10-06T20:36:41.829Z,13.90
2018-10-06T20:39:10.844Z,15.17
2018-10-06T20:41:39.330Z,19.30
2018-10-06T20:44:07.784Z,15.10
2018-10-06T20:46:36.253Z,15.20
2018-10-06T20:49:04.694Z,15.63
2018-10-06T20:51:33.109Z,16.43
2018-10-06T20:54:01.518Z,17.23
2018-10-06T20:56:30.936Z,23.20
2018-10-06T20:58:59.636Z,15.77
2018-10-06T21:01:28.065Z,18.20
2018-10-06T21:03:56.453Z,21.27
2018-10-06T21:06:37.455Z,28.43
2018-10-06T21:09:09.697Z,28.13
2018-10-06T21:11:38.141Z,28.30
2018-10-06T21:14:06.550Z,24.33
2018-10-06T21:16:34.964Z,29.37
2018-10-06T21:19:03.374Z,30.63
2018-10-06T21:21:31.823Z,23.53
2018-10-06T21:24:00.233Z,22.80
2018-10-06T21:26:28.659Z,26.80
2018-10-06T21:28:57.116Z,25.43
2018-10-06T21:31:25.688Z,26.93
2018-10-06T21:33:54.316Z,28.10
2018-10-06T21:36:22.744Z,26.93
2018-10-06T21:38:51.187Z,32.60
2018-10-06T21:41:19.657Z,30.60
2018-10-06T21:43:48.053Z,36.37
2018-10-06T21:46:16.445Z,37.40
2018-10-06T21:48:44.881Z,38.57
2018-10-06T21:51:13.609Z,41.90
2018-10-06T21:53:42.142Z,42.47
2018-10-06T21:56:10.649Z,43.83
2018-10-06T21:58:39.236Z,42.57
2018-10-06T22:01:10.963Z,49.77
2018-10-06T22:03:40.066Z,47.00
2018-10-06T22:06:09.168Z,48.53
2018-10-06T22:08:37.825Z,56.83
2018-10-06T22:11:06.291Z,58.03
2018-10-06T22:13:34.677Z,56.67
2018-10-06T22:16:03.151Z,59.30
2018-10-06T22:18:31.541Z,48.20
2018-10-06T22:21:00.065Z,54.13
2018-10-06T22:23:28.475Z,61.93
2018-10-06T22:25:56.880Z,55.50
2018-10-06T22:28:25.301Z,49.77
2018-10-06T22:30:53.716Z,55.33
2018-10-06T22:33:22.272Z,54.30
2018-10-06T22:35:50.685Z,55.07
2018-10-06T22:38:19.529Z,49.70
2018-10-06T22:40:48.204Z,57.47
2018-10-06T22:43:16.601Z,56.67
2018-10-06T22:45:45.025Z,51.40
2018-10-06T22:48:13.445Z,54.20
2018-10-06T22:50:41.865Z,55.97
2018-10-06T22:53:10.316Z,52.07
2018-10-06T22:55:38.712Z,54.17
2018-10-06T22:58:07.214Z,53.37
2018-10-06T23:00:35.641Z,60.10
2018-10-06T23:03:04.053Z,52.63
2018-10-06T23:05:32.448Z,56.03
2018-10-06T23:08:01.648Z,57.57
2018-10-06T23:10:30.120Z,61.07
2018-10-06T23:12:58.521Z,56.90
2018-10-06T23:15:27.412Z,60.80
2018-10-06T23:17:55.821Z,57.60
2018-10-06T23:20:24.217Z,64.97
2018-10-06T23:22:52.611Z,68.10
2018-10-06T23:25:21.001Z,67.37
2018-10-06T23:27:49.409Z,65.60
2018-10-06T23:30:17.955Z,72.80
2018-10-06T23:32:46.373Z,74.80
2018-10-06T23:35:15.716Z,77.60
2018-10-06T23:37:44.148Z,70.20
2018-10-06T23:40:12.575Z,73.23
2018-10-06T23:42:41.060Z,76.50
2018-10-06T23:45:09.479Z,69.80
2018-10-06T23:47:37.893Z,68.83
2018-10-06T23:50:06.410Z,68.77
2018-10-06T23:52:34.921Z,73.90
2018-10-06T23:55:04.104Z,78.10
2018-10-06T23:57:40.538Z,76.77
